sensor_id;sensor_type;location;lat;lon;timestamp;temperature;humidity
5743;DHT22;2896;53.500;10.020;2022-08-21T00:01:33;13.40;99.90
5743;DHT22;2896;53.500;10.020;2022-08-21T00:04:04;13.30;99.90
5743;DHT22;2896;53.500;10.020;2022-08-21T00:06:32;13.30;99.90
5743;DHT22;2896;53.500;10.020;2022-08-21T00:09:00;13.30;99.90
5743;DHT22;2896;53.500;10.020;2022-08-21T00:11:27;13.30;99.90
5743;DHT22;2896;53.500;10.020;2022-08-21T00:13:54;13.30;99.90
5743;DHT22;2896;53.500;10.020;2022-08-21T00:16:21;13.30;99.90
5743;DHT22;2896;53.500;10.020;2022-08-21T00:18:48;13.20;99.90
5743;DHT22;2896;53.500;10.020;2022-08-21T00:21:15;13.20;99.90
5743;DHT22;2896;53.500;10.020;2022-08-21T00:23:43;13.10;99.90
5743;DHT22;2896;53.500;10.020;2022-08-21T00:26:10;13.10;99.90
5743;DHT22;2896;53.500;10.020;2022-08-21T00:28:37;13.10;99.90
5743;DHT22;2896;53.500;10.020;2022-08-21T00:31:04;13.00;99.90
5743;DHT22;2896;53.500;10.020;2022-08-21T00:33:32;13.00;99.90
5743;DHT22;2896;53.500;10.020;2022-08-21T00:35:59;13.00;99.90
5743;DHT22;2896;53.500;10.020;2022-08-21T00:38:25;13.00;99.90
5743;DHT22;2896;53.500;10.020;2022-08-21T00:40:55;12.90;99.90
5743;DHT22;2896;53.500;10.020;2022-08-21T00:43:25;12.90;99.90
5743;DHT22;2896;53.500;10.020;2022-08-21T00:45:53;12.90;99.90
5743;DHT22;2896;53.500;10.020;2022-08-21T00:48:20;12.90;99.90
5743;DHT22;2896;53.500;10.020;2022-08-21T00:50:50;12.90;99.90
5743;DHT22;2896;53.500;10.020;2022-08-21T00:53:18;12.90;99.90
5743;DHT22;2896;53.500;10.020;2022-08-21T00:55:45;12.90;99.90
5743;DHT22;2896;53.500;10.020;2022-08-21T00:58:14;12.80;99.90
5743;DHT22;2896;53.500;10.020;2022-08-21T01:00:43;12.80;99.90
5743;DHT22;2896;53.500;10.020;2022-08-21T01:03:14;12.80;99.90
5743;DHT22;2896;53.500;10.020;2022-08-21T01:05:42;12.80;99.90
5743;DHT22;2896;53.500;10.020;2022-08-21T01:08:10;12.70;99.90
5743;DHT22;2896;53.500;10.020;2022-08-21T01:10:37;12.80;99.90
5743;DHT22;2896;53.500;10.020;2022-08-21T01:13:05;12.80;99.90
5743;DHT22;2896;53.500;10.020;2022-08-21T01:15:38;12.70;99.90
5743;DHT22;2896;53.500;10.020;2022-08-21T01:18:08;12.70;99.90
5743;DHT22;2896;53.500;10.020;2022-08-21T01:20:38;12.70;99.90
5743;DHT22;2896;53.500;10.020;2022-08-21T01:23:06;12.70;99.90
5743;DHT22;2896;53.500;10.020;2022-08-21T01:25:34;12.70;99.90
5743;DHT22;2896;53.500;10.020;2022-08-21T01:28:06;12.70;99.90
5743;DHT22;2896;53.500;10.020;2022-08-21T01:30:35;12.70;99.90
5743;DHT22;2896;53.500;10.020;2022-08-21T01:33:03;12.70;99.90
5743;DHT22;2896;53.500;10.020;2022-08-21T01:35:29;12.70;99.90
5743;DHT22;2896;53.500;10.020;2022-08-21T01:37:56;12.60;99.90
5743;DHT22;2896;53.500;10.020;2022-08-21T01:40:24;12.60;99.90
5743;DHT22;2896;53.500;10.020;2022-08-21T01:42:51;12.60;99.90
5743;DHT22;2896;53.500;10.020;2022-08-21T01:45:19;12.60;99.90
5743;DHT22;2896;53.500;10.020;2022-08-21T01:47:46;10.10;99.90
5743;DHT22;2896;53.500;10.020;2022-08-21T01:50:15;12.50;99.90
5743;DHT22;2896;53.500;10.020;2022-08-21T01:52:42;12.50;99.90
5743;DHT22;2896;53.500;10.020;2022-08-21T01:55:09;12.50;99.90
5743;DHT22;2896;53.500;10.020;2022-08-21T01:57:38;12.50;99.90
5743;DHT22;2896;53.500;10.020;2022-08-21T02:00:08;12.50;99.90
5743;DHT22;2896;53.500;10.020;2022-08-21T02:02:35;12.50;99.90
5743;DHT22;2896;53.500;10.020;2022-08-21T02:05:03;12.50;99.90
5743;DHT22;2896;53.500;10.020;2022-08-21T02:07:36;12.50;99.90
5743;DHT22;2896;53.500;10.020;2022-08-21T02:10:05;12.50;99.90
5743;DHT22;2896;53.500;10.020;2022-08-21T02:12:32;12.40;99.90
5743;DHT22;2896;53.500;10.020;2022-08-21T02:15:00;12.40;99.90
5743;DHT22;2896;53.500;10.020;2022-08-21T02:17:26;12.40;99.90
5743;DHT22;2896;53.500;10.020;2022-08-21T02:19:53;12.40;99.90
5743;DHT22;2896;53.500;10.020;2022-08-21T02:22:20;12.40;99.90
5743;DHT22;2896;53.500;10.020;2022-08-21T02:24:46;12.40;99.90
5743;DHT22;2896;53.500;10.020;2022-08-21T02:27:13;12.40;99.90
5743;DHT22;2896;53.500;10.020;2022-08-21T02:29:39;12.40;99.90
5743;DHT22;2896;53.500;10.020;2022-08-21T02:32:07;12.30;99.90
5743;DHT22;2896;53.500;10.020;2022-08-21T02:34:34;12.30;99.90
5743;DHT22;2896;53.500;10.020;2022-08-21T02:37:01;12.30;99.90
5743;DHT22;2896;53.500;10.020;2022-08-21T02:39:27;12.30;99.90
5743;DHT22;2896;53.500;10.020;2022-08-21T02:41:54;12.30;99.90
5743;DHT22;2896;53.500;10.020;2022-08-21T02:44:20;12.30;99.90
5743;DHT22;2896;53.500;10.020;2022-08-21T02:46:47;12.30;99.90
5743;DHT22;2896;53.500;10.020;2022-08-21T02:49:15;12.30;99.90
5743;DHT22;2896;53.500;10.020;2022-08-21T02:51:42;12.30;99.90
5743;DHT22;2896;53.500;10.020;2022-08-21T02:54:08;12.30;99.90
5743;DHT22;2896;53.500;10.020;2022-08-21T02:56:35;12.30;99.90
5743;DHT22;2896;53.500;10.020;2022-08-21T02:59:02;12.30;99.90
5743;DHT22;2896;53.500;10.020;2022-08-21T03:01:29;12.20;99.90
5743;DHT22;2896;53.500;10.020;2022-08-21T03:03:56;12.20;99.90
5743;DHT22;2896;53.500;10.020;2022-08-21T03:06:24;12.20;99.90
5743;DHT22;2896;53.500;10.020;2022-08-21T03:08:50;12.20;99.90
5743;DHT22;2896;53.500;10.020;2022-08-21T03:11:17;12.20;99.90
5743;DHT22;2896;53.500;10.020;2022-08-21T03:13:45;12.20;99.90
5743;DHT22;2896;53.500;10.020;2022-08-21T03:16:12;12.20;99.90
5743;DHT22;2896;53.500;10.020;2022-08-21T03:18:40;12.20;99.90
5743;DHT22;2896;53.500;10.020;2022-08-21T03:21:07;12.20;99.90
5743;DHT22;2896;53.500;10.020;2022-08-21T03:23:35;12.20;99.90
5743;DHT22;2896;53.500;10.020;2022-08-21T03:26:01;12.20;99.90
5743;DHT22;2896;53.500;10.020;2022-08-21T03:28:28;12.20;99.90
5743;DHT22;2896;53.500;10.020;2022-08-21T03:30:54;12.30;99.90
5743;DHT22;2896;53.500;10.020;2022-08-21T03:33:21;12.30;99.90
5743;DHT22;2896;53.500;10.020;2022-08-21T03:35:54;12.30;99.90
5743;DHT22;2896;53.500;10.020;2022-08-21T03:38:23;12.20;99.90
5743;DHT22;2896;53.500;10.020;2022-08-21T03:40:51;12.20;99.90
5743;DHT22;2896;53.500;10.020;2022-08-21T03:43:17;12.20;99.90
5743;DHT22;2896;53.500;10.020;2022-08-21T03:45:44;12.20;99.90
5743;DHT22;2896;53.500;10.020;2022-08-21T03:48:11;12.20;99.90
5743;DHT22;2896;53.500;10.020;2022-08-21T03:50:40;12.10;99.90
5743;DHT22;2896;53.500;10.020;2022-08-21T03:53:07;12.10;99.90
5743;DHT22;2896;53.500;10.020;2022-08-21T03:55:34;12.10;99.90
5743;DHT22;2896;53.500;10.020;2022-08-21T03:58:02;12.10;99.90
5743;DHT22;2896;53.500;10.020;2022-08-21T04:00:29;12.00;99.90
5743;DHT22;2896;53.500;10.020;2022-08-21T04:02:56;12.10;99.90
5743;DHT22;2896;53.500;10.020;2022-08-21T04:05:23;12.00;99.90
5743;DHT22;2896;53.500;10.020;2022-08-21T04:07:57;12.00;99.90
5743;DHT22;2896;53.500;10.020;2022-08-21T04:10:25;12.00;99.90
5743;DHT22;2896;53.500;10.020;2022-08-21T04:12:53;12.00;99.90
5743;DHT22;2896;53.500;10.020;2022-08-21T04:15:22;12.00;99.90
5743;DHT22;2896;53.500;10.020;2022-08-21T04:17:49;12.00;99.90
5743;DHT22;2896;53.500;10.020;2022-08-21T04:20:16;12.00;99.90
5743;DHT22;2896;53.500;10.020;2022-08-21T04:22:43;12.00;99.90
5743;DHT22;2896;53.500;10.020;2022-08-21T04:25:10;12.00;99.90
5743;DHT22;2896;53.500;10.020;2022-08-21T04:27:36;11.90;99.90
5743;DHT22;2896;53.500;10.020;2022-08-21T04:30:07;12.00;99.90
5743;DHT22;2896;53.500;10.020;2022-08-21T04:32:35;12.00;99.90
5743;DHT22;2896;53.500;10.020;2022-08-21T04:35:05;12.00;99.90
5743;DHT22;2896;53.500;10.020;2022-08-21T04:37:33;12.10;99.90
5743;DHT22;2896;53.500;10.020;2022-08-21T04:39:59;12.20;99.90
5743;DHT22;2896;53.500;10.020;2022-08-21T04:42:27;12.30;99.90
5743;DHT22;2896;53.500;10.020;2022-08-21T04:44:54;12.30;99.90
5743;DHT22;2896;53.500;10.020;2022-08-21T04:47:21;12.40;99.90
5743;DHT22;2896;53.500;10.020;2022-08-21T04:49:50;12.50;99.90
5743;DHT22;2896;53.500;10.020;2022-08-21T04:52:20;12.60;99.90
5743;DHT22;2896;53.500;10.020;2022-08-21T04:54:48;12.70;99.90
5743;DHT22;2896;53.500;10.020;2022-08-21T04:57:17;12.80;99.90
5743;DHT22;2896;53.500;10.020;2022-08-21T04:59:48;12.90;99.90
5743;DHT22;2896;53.500;10.020;2022-08-21T05:02:17;13.00;99.90
5743;DHT22;2896;53.500;10.020;2022-08-21T05:04:46;13.10;99.90
5743;DHT22;2896;53.500;10.020;2022-08-21T05:07:19;13.10;1.00
5743;DHT22;2896;53.500;10.020;2022-08-21T05:09:46;13.20;1.00
5743;DHT22;2896;53.500;10.020;2022-08-21T05:12:13;13.20;1.00
5743;DHT22;2896;53.500;10.020;2022-08-21T05:14:40;13.30;1.00
5743;DHT22;2896;53.500;10.020;2022-08-21T05:17:07;13.30;1.00
5743;DHT22;2896;53.500;10.020;2022-08-21T05:19:34;13.40;1.00
5743;DHT22;2896;53.500;10.020;2022-08-21T05:22:01;13.40;1.00
5743;DHT22;2896;53.500;10.020;2022-08-21T05:24:29;13.50;1.00
5743;DHT22;2896;53.500;10.020;2022-08-21T05:26:56;13.60;1.00
5743;DHT22;2896;53.500;10.020;2022-08-21T05:29:22;13.70;1.00
5743;DHT22;2896;53.500;10.020;2022-08-21T05:31:49;13.80;99.90
5743;DHT22;2896;53.500;10.020;2022-08-21T05:34:19;13.90;99.90
5743;DHT22;2896;53.500;10.020;2022-08-21T05:36:46;14.00;99.90
5743;DHT22;2896;53.500;10.020;2022-08-21T05:39:13;14.10;99.90
5743;DHT22;2896;53.500;10.020;2022-08-21T05:41:41;14.20;99.90
5743;DHT22;2896;53.500;10.020;2022-08-21T05:44:07;14.30;99.90
5743;DHT22;2896;53.500;10.020;2022-08-21T05:46:34;14.30;99.90
5743;DHT22;2896;53.500;10.020;2022-08-21T05:49:01;14.30;99.90
5743;DHT22;2896;53.500;10.020;2022-08-21T05:51:27;14.30;99.90
5743;DHT22;2896;53.500;10.020;2022-08-21T05:53:54;14.40;99.90
5743;DHT22;2896;53.500;10.020;2022-08-21T05:56:21;14.50;99.90
5743;DHT22;2896;53.500;10.020;2022-08-21T05:58:48;14.60;99.90
5743;DHT22;2896;53.500;10.020;2022-08-21T06:01:15;14.70;99.90
5743;DHT22;2896;53.500;10.020;2022-08-21T06:03:42;14.80;99.90
5743;DHT22;2896;53.500;10.020;2022-08-21T06:06:09;14.90;99.90
5743;DHT22;2896;53.500;10.020;2022-08-21T06:08:36;14.90;99.90
5743;DHT22;2896;53.500;10.020;2022-08-21T06:11:03;15.10;99.90
5743;DHT22;2896;53.500;10.020;2022-08-21T06:13:30;15.10;99.90
5743;DHT22;2896;53.500;10.020;2022-08-21T06:16:03;15.20;99.90
5743;DHT22;2896;53.500;10.020;2022-08-21T06:18:31;15.30;99.90
5743;DHT22;2896;53.500;10.020;2022-08-21T06:20:58;15.30;99.90
5743;DHT22;2896;53.500;10.020;2022-08-21T06:23:24;15.30;99.90
5743;DHT22;2896;53.500;10.020;2022-08-21T06:25:51;15.40;99.90
5743;DHT22;2896;53.500;10.020;2022-08-21T06:28:18;15.40;99.90
5743;DHT22;2896;53.500;10.020;2022-08-21T06:30:45;15.50;99.90
5743;DHT22;2896;53.500;10.020;2022-08-21T06:33:13;15.60;99.90
5743;DHT22;2896;53.500;10.020;2022-08-21T06:35:40;15.80;99.90
5743;DHT22;2896;53.500;10.020;2022-08-21T06:38:06;15.80;99.90
5743;DHT22;2896;53.500;10.020;2022-08-21T06:40:33;15.90;99.90
5743;DHT22;2896;53.500;10.020;2022-08-21T06:43:05;16.00;99.90
5743;DHT22;2896;53.500;10.020;2022-08-21T06:45:32;16.20;99.90
5743;DHT22;2896;53.500;10.020;2022-08-21T06:47:59;16.20;99.90
5743;DHT22;2896;53.500;10.020;2022-08-21T06:50:27;16.20;99.90
5743;DHT22;2896;53.500;10.020;2022-08-21T06:52:59;16.30;99.90
5743;DHT22;2896;53.500;10.020;2022-08-21T06:55:27;16.50;99.90
5743;DHT22;2896;53.500;10.020;2022-08-21T06:57:54;16.50;99.90
5743;DHT22;2896;53.500;10.020;2022-08-21T07:00:20;16.50;99.90
5743;DHT22;2896;53.500;10.020;2022-08-21T07:02:47;16.50;99.90
5743;DHT22;2896;53.500;10.020;2022-08-21T07:05:14;16.60;99.90
5743;DHT22;2896;53.500;10.020;2022-08-21T07:07:42;16.70;99.90
5743;DHT22;2896;53.500;10.020;2022-08-21T07:10:09;16.70;99.90
5743;DHT22;2896;53.500;10.020;2022-08-21T07:12:36;16.80;99.90
5743;DHT22;2896;53.500;10.020;2022-08-21T07:15:03;16.90;99.90
5743;DHT22;2896;53.500;10.020;2022-08-21T07:17:30;17.20;99.90
5743;DHT22;2896;53.500;10.020;2022-08-21T07:19:56;17.40;99.90
5743;DHT22;2896;53.500;10.020;2022-08-21T07:22:23;17.60;99.90
5743;DHT22;2896;53.500;10.020;2022-08-21T07:24:51;17.80;99.90
5743;DHT22;2896;53.500;10.020;2022-08-21T07:27:18;17.90;99.90
5743;DHT22;2896;53.500;10.020;2022-08-21T07:29:44;18.20;99.90
5743;DHT22;2896;53.500;10.020;2022-08-21T07:32:11;18.40;99.90
5743;DHT22;2896;53.500;10.020;2022-08-21T07:34:38;18.50;99.90
5743;DHT22;2896;53.500;10.020;2022-08-21T07:37:05;18.60;99.90
5743;DHT22;2896;53.500;10.020;2022-08-21T07:39:32;18.70;99.90
5743;DHT22;2896;53.500;10.020;2022-08-21T07:42:00;19.00;99.90
5743;DHT22;2896;53.500;10.020;2022-08-21T07:44:28;19.10;99.90
5743;DHT22;2896;53.500;10.020;2022-08-21T07:46:55;19.20;99.90
5743;DHT22;2896;53.500;10.020;2022-08-21T07:49:21;19.20;99.90
5743;DHT22;2896;53.500;10.020;2022-08-21T07:51:48;19.20;99.90
5743;DHT22;2896;53.500;10.020;2022-08-21T07:54:15;20.60;99.90
5743;DHT22;2896;53.500;10.020;2022-08-21T07:56:41;19.80;99.90
5743;DHT22;2896;53.500;10.020;2022-08-21T07:59:09;20.00;99.90
5743;DHT22;2896;53.500;10.020;2022-08-21T08:01:36;20.10;99.90
5743;DHT22;2896;53.500;10.020;2022-08-21T08:04:03;20.10;99.90
5743;DHT22;2896;53.500;10.020;2022-08-21T08:06:30;20.30;99.90
5743;DHT22;2896;53.500;10.020;2022-08-21T08:08:56;20.60;99.90
5743;DHT22;2896;53.500;10.020;2022-08-21T08:11:23;20.80;99.90
5743;DHT22;2896;53.500;10.020;2022-08-21T08:13:51;20.70;99.90
5743;DHT22;2896;53.500;10.020;2022-08-21T08:16:19;21.00;99.90
5743;DHT22;2896;53.500;10.020;2022-08-21T08:18:46;21.40;99.90
5743;DHT22;2896;53.500;10.020;2022-08-21T08:21:15;21.70;99.90
5743;DHT22;2896;53.500;10.020;2022-08-21T08:23:43;21.90;99.90
5743;DHT22;2896;53.500;10.020;2022-08-21T08:26:10;22.10;99.90
5743;DHT22;2896;53.500;10.020;2022-08-21T08:28:37;22.00;99.90
5743;DHT22;2896;53.500;10.020;2022-08-21T08:31:04;21.40;99.90
5743;DHT22;2896;53.500;10.020;2022-08-21T08:33:32;21.30;99.90
5743;DHT22;2896;53.500;10.020;2022-08-21T08:35:58;21.50;99.90
5743;DHT22;2896;53.500;10.020;2022-08-21T08:38:26;21.60;99.90
5743;DHT22;2896;53.500;10.020;2022-08-21T08:40:55;21.80;99.90
5743;DHT22;2896;53.500;10.020;2022-08-21T08:43:25;22.20;99.90
5743;DHT22;2896;53.500;10.020;2022-08-21T08:45:55;21.80;99.90
5743;DHT22;2896;53.500;10.020;2022-08-21T08:48:36;21.90;99.90
5743;DHT22;2896;53.500;10.020;2022-08-21T08:53:40;22.70;99.90
5743;DHT22;2896;53.500;10.020;2022-08-21T08:56:09;22.80;99.90
5743;DHT22;2896;53.500;10.020;2022-08-21T08:58:38;23.10;99.90
5743;DHT22;2896;53.500;10.020;2022-08-21T09:01:15;23.30;99.90
5743;DHT22;2896;53.500;10.020;2022-08-21T09:03:44;23.30;99.90
5743;DHT22;2896;53.500;10.020;2022-08-21T09:06:23;23.50;99.90
5743;DHT22;2896;53.500;10.020;2022-08-21T09:08:56;23.70;99.90
5743;DHT22;2896;53.500;10.020;2022-08-21T09:11:28;23.80;99.90
5743;DHT22;2896;53.500;10.020;2022-08-21T09:14:06;23.80;99.90
5743;DHT22;2896;53.500;10.020;2022-08-21T09:16:40;24.00;99.90
5743;DHT22;2896;53.500;10.020;2022-08-21T09:19:28;24.10;99.90
5743;DHT22;2896;53.500;10.020;2022-08-21T09:22:05;24.30;99.90
5743;DHT22;2896;53.500;10.020;2022-08-21T09:24:42;24.30;99.90
5743;DHT22;2896;53.500;10.020;2022-08-21T09:27:14;24.50;99.90
5743;DHT22;2896;53.500;10.020;2022-08-21T09:29:43;24.70;99.90
5743;DHT22;2896;53.500;10.020;2022-08-21T09:32:15;24.80;99.90
5743;DHT22;2896;53.500;10.020;2022-08-21T09:34:55;24.60;99.90
5743;DHT22;2896;53.500;10.020;2022-08-21T09:37:23;24.90;99.90
5743;DHT22;2896;53.500;10.020;2022-08-21T09:39:50;25.20;99.90
5743;DHT22;2896;53.500;10.020;2022-08-21T09:42:22;25.30;99.90
5743;DHT22;2896;53.500;10.020;2022-08-21T09:45:06;26.00;99.90
5743;DHT22;2896;53.500;10.020;2022-08-21T09:47:33;25.60;99.90
5743;DHT22;2896;53.500;10.020;2022-08-21T09:50:13;25.60;99.90
5743;DHT22;2896;53.500;10.020;2022-08-21T09:52:45;25.40;99.90
5743;DHT22;2896;53.500;10.020;2022-08-21T09:55:18;25.60;99.90
5743;DHT22;2896;53.500;10.020;2022-08-21T09:57:59;25.90;99.90
5743;DHT22;2896;53.500;10.020;2022-08-21T10:00:29;25.90;99.90
5743;DHT22;2896;53.500;10.020;2022-08-21T10:03:08;26.20;99.90
5743;DHT22;2896;53.500;10.020;2022-08-21T10:05:37;26.20;99.90
5743;DHT22;2896;53.500;10.020;2022-08-21T10:08:04;26.00;99.90
5743;DHT22;2896;53.500;10.020;2022-08-21T10:10:36;25.90;99.90
5743;DHT22;2896;53.500;10.020;2022-08-21T10:13:07;25.90;99.90
5743;DHT22;2896;53.500;10.020;2022-08-21T10:15:48;26.20;99.90
5743;DHT22;2896;53.500;10.020;2022-08-21T10:18:24;26.10;99.90
5743;DHT22;2896;53.500;10.020;2022-08-21T10:20:59;26.40;99.90
5743;DHT22;2896;53.500;10.020;2022-08-21T10:23:44;27.20;99.90
5743;DHT22;2896;53.500;10.020;2022-08-21T10:26:24;27.60;99.90
5743;DHT22;2896;53.500;10.020;2022-08-21T10:29:05;27.60;99.90
5743;DHT22;2896;53.500;10.020;2022-08-21T10:31:43;27.40;99.90
5743;DHT22;2896;53.500;10.020;2022-08-21T10:34:25;27.60;99.90
5743;DHT22;2896;53.500;10.020;2022-08-21T10:37:05;28.00;99.90
5743;DHT22;2896;53.500;10.020;2022-08-21T10:39:34;28.20;99.90
5743;DHT22;2896;53.500;10.020;2022-08-21T10:42:27;28.40;99.90
5743;DHT22;2896;53.500;10.020;2022-08-21T10:45:06;28.20;99.90
5743;DHT22;2896;53.500;10.020;2022-08-21T10:47:41;28.40;99.90
5743;DHT22;2896;53.500;10.020;2022-08-21T10:50:13;28.30;99.90
5743;DHT22;2896;53.500;10.020;2022-08-21T10:53:22;28.50;99.90
5743;DHT22;2896;53.500;10.020;2022-08-21T10:55:57;28.90;99.90
5743;DHT22;2896;53.500;10.020;2022-08-21T10:58:28;28.80;99.90
5743;DHT22;2896;53.500;10.020;2022-08-21T11:00:58;28.90;99.90
5743;DHT22;2896;53.500;10.020;2022-08-21T11:03:33;28.40;99.90
5743;DHT22;2896;53.500;10.020;2022-08-21T11:06:06;28.70;99.90
5743;DHT22;2896;53.500;10.020;2022-08-21T11:08:39;28.90;99.90
5743;DHT22;2896;53.500;10.020;2022-08-21T11:11:11;29.50;99.90
5743;DHT22;2896;53.500;10.020;2022-08-21T11:13:42;29.40;99.90
5743;DHT22;2896;53.500;10.020;2022-08-21T11:16:17;28.70;99.90
5743;DHT22;2896;53.500;10.020;2022-08-21T11:18:49;28.30;99.90
5743;DHT22;2896;53.500;10.020;2022-08-21T11:21:27;28.60;99.90
5743;DHT22;2896;53.500;10.020;2022-08-21T11:24:03;28.20;99.90
5743;DHT22;2896;53.500;10.020;2022-08-21T11:26:41;28.30;99.90
5743;DHT22;2896;53.500;10.020;2022-08-21T11:29:13;28.20;99.90
5743;DHT22;2896;53.500;10.020;2022-08-21T11:31:56;29.00;99.90
5743;DHT22;2896;53.500;10.020;2022-08-21T11:34:38;29.60;99.90
5743;DHT22;2896;53.500;10.020;2022-08-21T11:37:15;29.10;99.90
5743;DHT22;2896;53.500;10.020;2022-08-21T11:39:52;28.40;99.90
5743;DHT22;2896;53.500;10.020;2022-08-21T11:42:27;27.90;99.90
5743;DHT22;2896;53.500;10.020;2022-08-21T11:45:07;28.40;99.90
5743;DHT22;2896;53.500;10.020;2022-08-21T11:47:51;29.00;99.90
5743;DHT22;2896;53.500;10.020;2022-08-21T11:50:23;29.40;99.90
5743;DHT22;2896;53.500;10.020;2022-08-21T11:52:53;28.70;99.90
5743;DHT22;2896;53.500;10.020;2022-08-21T11:55:26;28.40;99.90
5743;DHT22;2896;53.500;10.020;2022-08-21T11:57:58;28.50;99.90
5743;DHT22;2896;53.500;10.020;2022-08-21T12:00:29;28.40;99.90
5743;DHT22;2896;53.500;10.020;2022-08-21T12:03:05;28.90;99.90
5743;DHT22;2896;53.500;10.020;2022-08-21T12:05:36;28.00;99.90
5743;DHT22;2896;53.500;10.020;2022-08-21T12:08:07;27.70;99.90
5743;DHT22;2896;53.500;10.020;2022-08-21T12:10:39;27.50;99.90
5743;DHT22;2896;53.500;10.020;2022-08-21T12:13:21;27.40;99.90
5743;DHT22;2896;53.500;10.020;2022-08-21T12:15:47;27.00;99.90
5743;DHT22;2896;53.500;10.020;2022-08-21T12:18:24;26.50;99.90
5743;DHT22;2896;53.500;10.020;2022-08-21T12:21:04;26.90;99.90
5743;DHT22;2896;53.500;10.020;2022-08-21T12:23:33;27.60;99.90
5743;DHT22;2896;53.500;10.020;2022-08-21T12:26:25;27.40;99.90
5743;DHT22;2896;53.500;10.020;2022-08-21T12:29:14;27.20;99.90
5743;DHT22;2896;53.500;10.020;2022-08-21T12:31:55;27.50;99.90
5743;DHT22;2896;53.500;10.020;2022-08-21T12:34:27;28.20;99.90
5743;DHT22;2896;53.500;10.020;2022-08-21T12:36:58;28.30;99.90
5743;DHT22;2896;53.500;10.020;2022-08-21T12:39:29;28.30;99.90
5743;DHT22;2896;53.500;10.020;2022-08-21T12:42:03;28.50;99.90
5743;DHT22;2896;53.500;10.020;2022-08-21T12:44:36;28.40;99.90
5743;DHT22;2896;53.500;10.020;2022-08-21T12:47:06;27.70;99.90
5743;DHT22;2896;53.500;10.020;2022-08-21T12:49:50;27.30;99.90
5743;DHT22;2896;53.500;10.020;2022-08-21T12:52:21;27.30;99.90
5743;DHT22;2896;53.500;10.020;2022-08-21T12:54:48;27.60;99.90
5743;DHT22;2896;53.500;10.020;2022-08-21T12:57:21;28.20;99.90
5743;DHT22;2896;53.500;10.020;2022-08-21T12:59:56;28.40;99.90
5743;DHT22;2896;53.500;10.020;2022-08-21T13:02:45;28.40;99.90
5743;DHT22;2896;53.500;10.020;2022-08-21T13:05:16;27.90;99.90
5743;DHT22;2896;53.500;10.020;2022-08-21T13:07:47;28.50;99.90
5743;DHT22;2896;53.500;10.020;2022-08-21T13:10:18;28.20;99.90
5743;DHT22;2896;53.500;10.020;2022-08-21T13:12:47;29.00;99.90
5743;DHT22;2896;53.500;10.020;2022-08-21T13:15:15;29.00;99.90
5743;DHT22;2896;53.500;10.020;2022-08-21T13:17:50;29.00;99.90
5743;DHT22;2896;53.500;10.020;2022-08-21T13:20:21;28.10;99.90
5743;DHT22;2896;53.500;10.020;2022-08-21T13:22:48;28.00;99.90
5743;DHT22;2896;53.500;10.020;2022-08-21T13:25:17;28.30;99.90
5743;DHT22;2896;53.500;10.020;2022-08-21T13:27:58;28.20;99.90
5743;DHT22;2896;53.500;10.020;2022-08-21T13:30:25;29.00;99.90
5743;DHT22;2896;53.500;10.020;2022-08-21T13:32:55;29.60;99.90
5743;DHT22;2896;53.500;10.020;2022-08-21T13:35:26;30.10;99.90
5743;DHT22;2896;53.500;10.020;2022-08-21T13:37:54;32.30;99.90
5743;DHT22;2896;53.500;10.020;2022-08-21T13:40:26;32.20;99.90
5743;DHT22;2896;53.500;10.020;2022-08-21T13:42:53;29.00;99.90
5743;DHT22;2896;53.500;10.020;2022-08-21T13:45:29;30.20;99.90
5743;DHT22;2896;53.500;10.020;2022-08-21T13:47:59;31.50;99.90
5743;DHT22;2896;53.500;10.020;2022-08-21T13:50:28;30.50;99.90
5743;DHT22;2896;53.500;10.020;2022-08-21T13:52:58;30.50;99.90
5743;DHT22;2896;53.500;10.020;2022-08-21T13:55:34;31.10;99.90
5743;DHT22;2896;53.500;10.020;2022-08-21T13:58:04;30.90;99.90
5743;DHT22;2896;53.500;10.020;2022-08-21T14:00:34;31.90;99.90
5743;DHT22;2896;53.500;10.020;2022-08-21T14:03:04;31.10;99.90
5743;DHT22;2896;53.500;10.020;2022-08-21T14:05:34;31.40;99.90
5743;DHT22;2896;53.500;10.020;2022-08-21T14:08:05;32.40;99.90
5743;DHT22;2896;53.500;10.020;2022-08-21T14:10:36;30.60;99.90
5743;DHT22;2896;53.500;10.020;2022-08-21T14:13:05;31.30;99.90
5743;DHT22;2896;53.500;10.020;2022-08-21T14:15:34;32.50;99.90
5743;DHT22;2896;53.500;10.020;2022-08-21T14:18:08;32.80;99.90
5743;DHT22;2896;53.500;10.020;2022-08-21T14:20:42;30.00;99.90
5743;DHT22;2896;53.500;10.020;2022-08-21T14:23:09;30.70;99.90
5743;DHT22;2896;53.500;10.020;2022-08-21T14:25:41;29.60;99.90
5743;DHT22;2896;53.500;10.020;2022-08-21T14:28:18;29.90;99.90
5743;DHT22;2896;53.500;10.020;2022-08-21T14:30:47;28.60;99.90
5743;DHT22;2896;53.500;10.020;2022-08-21T14:33:27;29.00;99.90
5743;DHT22;2896;53.500;10.020;2022-08-21T14:35:54;29.20;99.90
5743;DHT22;2896;53.500;10.020;2022-08-21T14:38:23;29.70;99.90
5743;DHT22;2896;53.500;10.020;2022-08-21T14:40:52;30.20;99.90
5743;DHT22;2896;53.500;10.020;2022-08-21T14:43:20;30.40;99.90
5743;DHT22;2896;53.500;10.020;2022-08-21T14:45:48;30.40;99.90
5743;DHT22;2896;53.500;10.020;2022-08-21T14:48:15;30.40;99.90
5743;DHT22;2896;53.500;10.020;2022-08-21T14:50:42;30.10;99.90
5743;DHT22;2896;53.500;10.020;2022-08-21T14:53:09;30.00;99.90
5743;DHT22;2896;53.500;10.020;2022-08-21T14:55:36;30.40;99.90
5743;DHT22;2896;53.500;10.020;2022-08-21T14:58:18;30.50;99.90
5743;DHT22;2896;53.500;10.020;2022-08-21T15:00:45;30.00;99.90
5743;DHT22;2896;53.500;10.020;2022-08-21T15:03:13;31.80;99.90
5743;DHT22;2896;53.500;10.020;2022-08-21T15:05:40;30.40;99.90
5743;DHT22;2896;53.500;10.020;2022-08-21T15:08:07;30.70;99.90
5743;DHT22;2896;53.500;10.020;2022-08-21T15:10:34;31.00;99.90
5743;DHT22;2896;53.500;10.020;2022-08-21T15:13:02;30.70;99.90
5743;DHT22;2896;53.500;10.020;2022-08-21T15:15:30;31.40;99.90
5743;DHT22;2896;53.500;10.020;2022-08-21T15:18:00;32.70;99.90
5743;DHT22;2896;53.500;10.020;2022-08-21T15:20:28;29.70;99.90
5743;DHT22;2896;53.500;10.020;2022-08-21T15:22:55;32.70;99.90
5743;DHT22;2896;53.500;10.020;2022-08-21T15:25:22;30.80;99.90
5743;DHT22;2896;53.500;10.020;2022-08-21T15:27:49;30.00;99.90
5743;DHT22;2896;53.500;10.020;2022-08-21T15:30:15;31.10;99.90
5743;DHT22;2896;53.500;10.020;2022-08-21T15:32:42;30.30;99.90
5743;DHT22;2896;53.500;10.020;2022-08-21T15:35:09;30.10;99.90
5743;DHT22;2896;53.500;10.020;2022-08-21T15:37:37;31.90;99.90
5743;DHT22;2896;53.500;10.020;2022-08-21T15:40:04;31.80;99.90
5743;DHT22;2896;53.500;10.020;2022-08-21T15:42:32;30.40;99.90
5743;DHT22;2896;53.500;10.020;2022-08-21T15:44:59;30.40;99.90
5743;DHT22;2896;53.500;10.020;2022-08-21T15:47:29;31.80;99.90
5743;DHT22;2896;53.500;10.020;2022-08-21T15:49:57;30.80;99.90
5743;DHT22;2896;53.500;10.020;2022-08-21T15:52:24;30.50;99.90
5743;DHT22;2896;53.500;10.020;2022-08-21T15:54:52;30.60;99.90
5743;DHT22;2896;53.500;10.020;2022-08-21T15:57:21;30.50;99.90
5743;DHT22;2896;53.500;10.020;2022-08-21T15:59:52;30.50;99.90
5743;DHT22;2896;53.500;10.020;2022-08-21T16:02:31;30.40;99.90
5743;DHT22;2896;53.500;10.020;2022-08-21T16:04:59;30.50;99.90
5743;DHT22;2896;53.500;10.020;2022-08-21T16:07:35;30.10;99.90